createdAt,value
2018-12-22T00:03:14.304Z,3.19
2018-12-22T00:09:09.271Z,3.43
2018-12-22T00:15:04.265Z,3.68
2018-12-22T00:20:59.281Z,3.48
2018-12-22T00:26:54.252Z,3.65
2018-12-22T00:32:49.249Z,3.27
2018-12-22T00:38:44.262Z,2.87
2018-12-22T00:44:39.280Z,3.73
2018-12-22T00:50:34.383Z,3.26
2018-12-22T00:56:29.287Z,4.29
2018-12-22T01:02:24.262Z,4.41
2018-12-22T01:08:19.331Z,5.33
2018-12-22T01:14:14.271Z,3.89
2018-12-22T01:20:09.278Z,4.91
2018-12-22T01:26:04.288Z,4.42
2018-12-22T01:31:59.321Z,5.23
2018-12-22T01:37:54.291Z,5.21
2018-12-22T01:43:49.306Z,4.8
2018-12-22T01:49:44.311Z,4.54
2018-12-22T01:55:39.372Z,4.74
2018-12-22T02:01:34.309Z,4.39
2018-12-22T02:07:29.312Z,4.94
2018-12-22T02:13:24.339Z,4.24
2018-12-22T02:19:19.388Z,5.75
2018-12-22T02:25:14.383Z,5.31
2018-12-22T02:31:09.339Z,5
2018-12-22T02:37:04.364Z,5.17
2018-12-22T02:42:59.378Z,4.43
2018-12-22T02:48:54.342Z,5.1
2018-12-22T02:54:49.361Z,4.93
2018-12-22T03:00:44.360Z,7.22
2018-12-22T03:06:39.373Z,7.09
2018-12-22T03:12:34.378Z,6.87
2018-12-22T03:18:29.370Z,6.17
2018-12-22T03:24:24.403Z,6.72
2018-12-22T03:30:19.360Z,7.29
2018-12-22T03:36:14.390Z,5.81
2018-12-22T03:42:09.375Z,6.23
2018-12-22T03:48:04.388Z,6.13
2018-12-22T03:53:59.410Z,7.53
2018-12-22T03:59:54.390Z,7.08
2018-12-22T04:05:49.438Z,5.23
2018-12-22T04:11:44.376Z,4.74
2018-12-22T04:17:39.394Z,4.57
2018-12-22T04:23:34.412Z,4.11
2018-12-22T04:29:33.717Z,4.3
2018-12-22T04:35:24.415Z,4.17
2018-12-22T04:41:19.397Z,3.78
2018-12-22T04:47:14.413Z,4.07
2018-12-22T04:53:09.400Z,2.77
2018-12-22T04:59:04.411Z,3.47
2018-12-22T05:04:59.405Z,2.97
2018-12-22T05:10:54.436Z,2.92
2018-12-22T05:16:49.475Z,3.34
2018-12-22T05:22:44.415Z,3.48
2018-12-22T05:28:39.422Z,3.24
2018-12-22T05:34:34.507Z,2.7
2018-12-22T05:40:29.430Z,2.79
2018-12-22T05:46:24.459Z,3.45
2018-12-22T05:52:19.497Z,3.04
2018-12-22T05:58:14.422Z,2.89
2018-12-22T06:04:09.456Z,2.78
2018-12-22T06:10:04.462Z,3.09
2018-12-22T06:15:59.441Z,3.44
2018-12-22T06:21:54.458Z,3.02
2018-12-22T06:27:49.461Z,2.95
2018-12-22T06:33:44.463Z,2.77
2018-12-22T06:39:39.462Z,2.59
2018-12-22T06:45:34.468Z,3.13
2018-12-22T06:51:29.476Z,3.27
2018-12-22T06:57:24.488Z,2.99
2018-12-22T07:03:19.504Z,3.07
2018-12-22T07:09:14.486Z,3.41
2018-12-22T07:15:09.485Z,3.29
2018-12-22T07:21:04.497Z,2.7
2018-12-22T07:26:59.515Z,3.06
2018-12-22T07:32:57.053Z,2.8
2018-12-22T07:38:49.594Z,2.85
2018-12-22T07:44:44.560Z,2.65
2018-12-22T07:50:39.517Z,2.5
2018-12-22T07:56:34.510Z,2.99
2018-12-22T08:02:29.522Z,3.23
2018-12-22T08:08:24.546Z,4.53
2018-12-22T08:14:19.545Z,7.21
2018-12-22T08:20:14.538Z,8.14
2018-12-22T08:26:09.530Z,6.9
2018-12-22T08:32:04.513Z,5.47
2018-12-22T08:37:59.539Z,4.7
2018-12-22T08:43:54.570Z,5.03
2018-12-22T08:49:49.574Z,4.25
2018-12-22T08:55:44.551Z,4.5
2018-12-22T09:01:39.541Z,5.09
2018-12-22T09:07:34.577Z,4.93
2018-12-22T09:13:29.549Z,3.83
2018-12-22T09:19:24.590Z,4.02
2018-12-22T09:25:19.579Z,3.96
2018-12-22T09:31:14.587Z,3.89
2018-12-22T09:37:09.575Z,4.06
2018-12-22T09:43:04.570Z,4.41
2018-12-22T09:48:59.580Z,4
2018-12-22T09:54:54.616Z,3.4
2018-12-22T10:00:49.634Z,2.98
2018-12-22T10:06:44.615Z,2.98
2018-12-22T10:12:39.614Z,3.16
2018-12-22T10:18:34.624Z,2.91
2018-12-22T10:24:29.597Z,3.28
2018-12-22T10:30:24.615Z,3.94
2018-12-22T10:36:19.598Z,3.72
2018-12-22T10:42:14.615Z,3.57
2018-12-22T10:48:09.626Z,3.65
2018-12-22T10:54:04.615Z,3.39
2018-12-22T10:59:59.607Z,4.1
2018-12-22T11:05:54.622Z,3.96
2018-12-22T11:11:49.638Z,6.83
2018-12-22T11:17:44.636Z,5.7
2018-12-22T11:23:39.648Z,5.35
2018-12-22T11:29:34.649Z,6.3
2018-12-22T11:35:29.637Z,6.34
2018-12-22T11:41:24.679Z,10.27
2018-12-22T11:47:19.638Z,14.73
2018-12-22T11:53:14.665Z,15.73
2018-12-22T11:59:09.658Z,13.99
2018-12-22T12:05:04.661Z,12.97
2018-12-22T12:11:00.526Z,13.52
2018-12-22T12:16:55.004Z,12.42
2018-12-22T12:22:49.662Z,12.18
2018-12-22T12:28:44.705Z,13.61
2018-12-22T12:34:39.671Z,11.75
2018-12-22T12:40:34.712Z,10.25
2018-12-22T12:46:29.682Z,12.41
2018-12-22T12:52:24.679Z,12.88
2018-12-22T12:58:19.725Z,13.3
2018-12-22T13:04:14.683Z,13.03
2018-12-22T13:10:09.735Z,13.49
2018-12-22T13:16:04.693Z,12.87
2018-12-22T13:21:59.729Z,15.06
2018-12-22T13:27:54.717Z,14.78
2018-12-22T13:33:49.732Z,13.17
2018-12-22T13:39:44.793Z,12.74
2018-12-22T13:45:39.718Z,11.46
2018-12-22T13:51:34.718Z,12.14
2018-12-22T13:57:29.732Z,11.93
2018-12-22T14:03:24.734Z,12.52
2018-12-22T14:09:19.737Z,13.6
2018-12-22T14:15:14.754Z,13.89
2018-12-22T14:21:09.748Z,13.8
2018-12-22T14:27:04.790Z,13.5
2018-12-22T14:32:59.750Z,13.03
2018-12-22T14:38:54.750Z,11.92
2018-12-22T14:44:49.781Z,12.45
2018-12-22T14:50:44.787Z,10.03
2018-12-22T14:56:39.786Z,8.77
2018-12-22T15:02:35.334Z,8.79
2018-12-22T15:08:29.752Z,5.11
2018-12-22T15:14:24.779Z,4.74
2018-12-22T15:20:19.790Z,3.87
2018-12-22T15:26:14.787Z,4.33
2018-12-22T15:32:09.807Z,4.22
2018-12-22T15:38:04.799Z,3.53
2018-12-22T15:43:59.785Z,3.97
2018-12-22T15:49:54.826Z,3.38
2018-12-22T15:55:49.839Z,3.48
2018-12-22T16:01:44.818Z,3.07
2018-12-22T16:07:39.864Z,3.35
2018-12-22T16:13:34.851Z,3.86
2018-12-22T16:19:29.832Z,3.17
2018-12-22T16:25:24.847Z,3.33
2018-12-22T16:31:19.823Z,3.37
2018-12-22T16:37:14.815Z,3.79
2018-12-22T16:43:09.845Z,3.6
2018-12-22T16:49:04.907Z,3.63
2018-12-22T16:54:59.848Z,3.01
2018-12-22T17:00:54.832Z,4.06
2018-12-22T17:06:49.841Z,4.05
2018-12-22T17:12:44.842Z,3.65
2018-12-22T17:18:39.864Z,4.07
2018-12-22T17:24:34.863Z,4.15
2018-12-22T17:30:29.859Z,4.5
2018-12-22T17:36:25.499Z,5.03
2018-12-22T17:42:20.836Z,5.01
2018-12-22T17:48:14.867Z,5.13
2018-12-22T17:54:09.856Z,11.06
2018-12-22T18:00:04.876Z,5.63
2018-12-22T18:05:59.896Z,5.09
2018-12-22T18:11:54.901Z,5.24
2018-12-22T18:17:49.891Z,5.94
2018-12-22T18:23:44.900Z,6.37
2018-12-22T18:29:39.907Z,7.28
2018-12-22T18:35:34.901Z,7.19
2018-12-22T18:41:29.921Z,7.31
2018-12-22T18:47:24.968Z,7.68
2018-12-22T18:53:19.901Z,8.64
2018-12-22T18:59:14.922Z,8.34
2018-12-22T19:05:09.982Z,9.1
2018-12-22T19:11:04.907Z,8.67
2018-12-22T19:16:59.914Z,8.95
2018-12-22T19:22:54.966Z,8.87
2018-12-22T19:28:49.955Z,9.37
2018-12-22T19:34:44.925Z,8.76
2018-12-22T19:40:39.918Z,10.71
2018-12-22T19:46:34.957Z,11.67
2018-12-22T19:52:29.947Z,13
2018-12-22T19:58:24.945Z,11.14
2018-12-22T20:04:19.975Z,11.47
2018-12-22T20:10:15.020Z,10.95
2018-12-22T20:16:09.982Z,8.4
2018-12-22T20:22:04.984Z,9.04
2018-12-22T20:28:00.009Z,9.77
2018-12-22T20:33:54.972Z,8.7
2018-12-22T20:39:49.982Z,7.78
2018-12-22T20:45:44.989Z,8.13
2018-12-22T20:51:40.042Z,9.65
2018-12-22T20:57:35.008Z,11.31
2018-12-22T21:03:29.991Z,10.09
2018-12-22T21:09:24.998Z,9.39
2018-12-22T21:15:19.983Z,9.47
2018-12-22T21:21:15.016Z,10.66
2018-12-22T21:27:10.008Z,11.02
2018-12-22T21:33:05.023Z,12.04
2018-12-22T21:39:00.041Z,12.83
2018-12-22T21:44:55.040Z,14.19
2018-12-22T21:50:50.006Z,12.97
2018-12-22T21:56:45.042Z,12.31
2018-12-22T22:02:40.082Z,14
2018-12-22T22:08:35.022Z,14.33
2018-12-22T22:14:30.044Z,13.27
2018-12-22T22:20:25.036Z,13.89
2018-12-22T22:26:20.049Z,14.99
2018-12-22T22:32:15.038Z,14.72
2018-12-22T22:38:10.092Z,12.21
2018-12-22T22:44:05.060Z,9.67
2018-12-22T22:50:00.044Z,10.79
2018-12-22T22:55:55.073Z,13.57
2018-12-22T23:01:50.081Z,13.07
2018-12-22T23:07:45.065Z,11.51
2018-12-22T23:13:40.068Z,10.41
2018-12-22T23:19:35.174Z,15.17
2018-12-22T23:25:30.072Z,15.35
2018-12-22T23:31:25.079Z,14.69
2018-12-22T23:37:20.123Z,16.89
2018-12-22T23:43:15.102Z,18.7
2018-12-22T23:49:10.080Z,18.13
2018-12-22T23:55:05.104Z,18.09
